createdAt,value
2023-05-22T00:00:16.581Z,6.38
2023-05-22T00:02:44.765Z,6.00
2023-05-22T00:05:14.149Z,6.07
2023-05-22T00:07:43.968Z,6.32
2023-05-22T00:10:12.333Z,6.10
2023-05-22T00:12:40.461Z,5.88
2023-05-22T00:15:09.559Z,6.25
2023-05-22T00:17:37.548Z,6.00
2023-05-22T00:20:07.871Z,5.85
2023-05-22T00:22:36.413Z,6.32
2023-05-22T00:25:07.108Z,6.28
2023-05-22T00:27:35.340Z,5.97
2023-05-22T00:30:03.700Z,6.20
2023-05-22T00:32:31.713Z,6.05
2023-05-22T00:34:59.728Z,6.03
2023-05-22T00:37:27.729Z,5.97
2023-05-22T00:39:55.841Z,5.75
2023-05-22T00:42:25.621Z,6.05
2023-05-22T00:44:53.639Z,5.65
2023-05-22T00:47:23.740Z,5.70
2023-05-22T00:49:51.916Z,5.97
2023-05-22T00:52:20.922Z,5.80
2023-05-22T00:54:51.388Z,5.82
2023-05-22T00:57:20.407Z,5.97
2023-05-22T00:59:50.228Z,6.22
2023-05-22T01:02:18.308Z,6.18
2023-05-22T01:04:48.535Z,6.22
2023-05-22T01:07:17.833Z,6.45
2023-05-22T01:09:46.136Z,6.47
2023-05-22T01:12:25.611Z,6.63
2023-05-22T01:15:01.061Z,6.15
2023-05-22T01:17:35.036Z,6.35
2023-05-22T01:20:14.484Z,5.90
2023-05-22T01:23:16.202Z,6.30
2023-05-22T01:26:14.020Z,6.28
2023-05-22T01:28:57.007Z,5.72
2023-05-22T01:31:28.535Z,5.78
2023-05-22T01:33:59.717Z,5.90
2023-05-22T01:36:32.066Z,6.40
2023-05-22T01:39:01.696Z,6.05
2023-05-22T01:41:30.778Z,5.70
2023-05-22T01:43:58.944Z,6.28
2023-05-22T01:46:29.156Z,5.85
2023-05-22T01:48:58.016Z,6.00
2023-05-22T01:51:34.629Z,5.95
2023-05-22T01:54:11.802Z,5.93
2023-05-22T01:56:49.509Z,5.93
2023-05-22T01:59:25.466Z,5.90
2023-05-22T02:01:56.561Z,6.23
2023-05-22T02:04:25.468Z,6.07
2023-05-22T02:06:54.840Z,6.20
2023-05-22T02:09:25.629Z,5.63
2023-05-22T02:11:53.720Z,5.77
2023-05-22T02:14:22.369Z,6.10
2023-05-22T02:16:50.738Z,5.85
2023-05-22T02:19:20.247Z,5.75
2023-05-22T02:21:48.282Z,6.35
2023-05-22T02:24:16.479Z,6.25
2023-05-22T02:26:44.656Z,6.00
2023-05-22T02:29:13.580Z,6.00
2023-05-22T02:31:41.751Z,5.93
2023-05-22T02:34:09.788Z,5.97
2023-05-22T02:36:39.816Z,6.40
2023-05-22T02:39:07.933Z,6.27
2023-05-22T02:41:35.933Z,6.83
2023-05-22T02:44:03.962Z,6.20
2023-05-22T02:46:32.087Z,6.13
2023-05-22T02:49:00.167Z,6.33
2023-05-22T02:51:28.137Z,6.37
2023-05-22T02:53:57.497Z,7.27
2023-05-22T02:56:27.853Z,6.88
2023-05-22T02:58:56.122Z,7.32
2023-05-22T03:01:26.494Z,6.85
2023-05-22T03:03:55.510Z,7.00
2023-05-22T03:06:25.450Z,7.15
2023-05-22T03:08:53.462Z,7.30
2023-05-22T03:11:22.829Z,6.35
2023-05-22T03:13:50.860Z,7.03
2023-05-22T03:16:19.721Z,7.15
2023-05-22T03:18:47.862Z,6.82
2023-05-22T03:21:15.908Z,6.90
2023-05-22T03:23:45.809Z,6.55
2023-05-22T03:26:13.786Z,6.65
2023-05-22T03:28:43.167Z,6.47
2023-05-22T03:31:11.348Z,7.07
2023-05-22T03:33:39.424Z,6.70
2023-05-22T03:36:09.644Z,7.20
2023-05-22T03:38:37.650Z,7.05
2023-05-22T03:41:05.698Z,6.97
2023-05-22T03:43:33.679Z,7.05
2023-05-22T03:46:03.163Z,6.97
2023-05-22T03:48:31.378Z,6.80
2023-05-22T03:50:59.361Z,7.78
2023-05-22T03:53:27.376Z,6.85
2023-05-22T03:55:55.427Z,7.18
2023-05-22T03:58:25.528Z,6.65
2023-05-22T04:00:54.684Z,6.65
2023-05-22T04:03:24.168Z,6.30
2023-05-22T04:05:52.486Z,6.43
2023-05-22T04:08:20.752Z,6.55
2023-05-22T04:10:48.875Z,6.70
2023-05-22T04:13:18.073Z,6.50
2023-05-22T04:15:46.902Z,6.53
2023-05-22T04:18:15.533Z,6.45
2023-05-22T04:20:44.944Z,6.47
2023-05-22T04:23:13.322Z,6.10
2023-05-22T04:25:41.326Z,6.70
2023-05-22T04:28:09.489Z,7.03
2023-05-22T04:30:40.228Z,6.78
2023-05-22T04:33:08.730Z,7.00
2023-05-22T04:35:36.871Z,6.70
2023-05-22T04:38:06.254Z,6.70
2023-05-22T04:40:34.468Z,6.60
2023-05-22T04:43:03.535Z,6.75
2023-05-22T04:45:32.993Z,6.22
2023-05-22T04:48:02.780Z,6.13
2023-05-22T04:50:32.824Z,6.03
2023-05-22T04:53:04.220Z,6.10
2023-05-22T04:55:34.867Z,6.38
2023-05-22T04:58:03.251Z,6.50
2023-05-22T05:00:31.266Z,6.78
2023-05-22T05:03:00.548Z,6.82
2023-05-22T05:05:28.740Z,6.90
2023-05-22T05:07:56.768Z,6.82
2023-05-22T05:10:24.799Z,6.72
2023-05-22T05:12:54.231Z,7.05
2023-05-22T05:15:23.731Z,7.05
2023-05-22T05:17:51.869Z,7.10
2023-05-22T05:20:19.991Z,7.30
2023-05-22T05:22:48.055Z,6.60
2023-05-22T05:25:16.091Z,7.47
2023-05-22T05:27:44.109Z,7.28
2023-05-22T05:30:13.806Z,7.47
2023-05-22T05:32:41.938Z,7.93
2023-05-22T05:35:10.821Z,8.80
2023-05-22T05:37:38.846Z,7.38
2023-05-22T05:40:08.329Z,7.85
2023-05-22T05:42:36.749Z,6.93
2023-05-22T05:45:05.292Z,7.10
2023-05-22T05:47:34.922Z,7.40
2023-05-22T05:50:03.404Z,7.20
2023-05-22T05:52:32.765Z,7.88
2023-05-22T05:55:00.997Z,6.75
2023-05-22T05:57:30.252Z,7.22
2023-05-22T05:59:58.583Z,6.53
2023-05-22T06:02:26.673Z,7.32
2023-05-22T06:04:56.124Z,6.93
2023-05-22T06:07:24.306Z,6.15
2023-05-22T06:09:52.639Z,6.65
2023-05-22T06:12:21.351Z,6.32
2023-05-22T06:14:49.338Z,6.47
2023-05-22T06:17:17.564Z,7.22
2023-05-22T06:19:45.679Z,6.20
2023-05-22T06:22:15.051Z,6.45
2023-05-22T06:24:43.088Z,6.88
2023-05-22T06:27:11.194Z,6.38
2023-05-22T06:29:39.420Z,6.78
2023-05-22T06:32:08.098Z,6.78
2023-05-22T06:34:36.438Z,6.68
2023-05-22T06:37:04.496Z,5.88
2023-05-22T06:39:33.912Z,6.40
2023-05-22T06:42:01.941Z,6.10
2023-05-22T06:44:29.974Z,6.00
2023-05-22T06:46:59.540Z,6.13
2023-05-22T06:49:27.599Z,6.35
2023-05-22T06:51:55.721Z,5.97
2023-05-22T06:54:23.744Z,6.75
2023-05-22T06:56:53.193Z,6.38
2023-05-22T06:59:21.964Z,7.20
2023-05-22T07:01:50.250Z,5.93
2023-05-22T07:04:18.379Z,6.25
2023-05-22T07:06:46.444Z,6.45
2023-05-22T07:09:15.575Z,6.28
2023-05-22T07:11:44.026Z,6.20
2023-05-22T07:14:13.714Z,5.82
2023-05-22T07:16:41.980Z,5.65
2023-05-22T07:19:11.561Z,5.82
2023-05-22T07:21:39.654Z,6.00
2023-05-22T07:24:09.170Z,5.50
2023-05-22T07:26:37.467Z,5.90
2023-05-22T07:29:05.824Z,6.35
2023-05-22T07:31:35.496Z,6.13
2023-05-22T07:34:03.722Z,6.07
2023-05-22T07:36:32.628Z,6.50
2023-05-22T07:39:00.695Z,6.45
2023-05-22T07:41:28.774Z,6.07
2023-05-22T07:43:56.992Z,6.07
2023-05-22T07:46:25.146Z,5.80
2023-05-22T07:48:54.518Z,5.22
2023-05-22T07:51:22.623Z,5.78
2023-05-22T07:53:50.726Z,4.93
2023-05-22T07:56:18.778Z,5.57
2023-05-22T07:58:48.246Z,5.47
2023-05-22T08:01:16.666Z,5.20
2023-05-22T08:03:44.835Z,5.40
2023-05-22T08:06:15.966Z,5.35
2023-05-22T08:08:44.022Z,4.97
2023-05-22T08:11:12.079Z,5.15
2023-05-22T08:13:40.109Z,5.15
2023-05-22T08:16:08.834Z,5.00
2023-05-22T08:18:36.929Z,4.95
2023-05-22T08:21:05.088Z,5.20
2023-05-22T08:23:36.391Z,5.22
2023-05-22T08:26:04.605Z,4.88
2023-05-22T08:28:32.576Z,5.32
2023-05-22T08:31:00.606Z,4.80
2023-05-22T08:33:28.604Z,5.20
2023-05-22T08:35:56.677Z,4.75
2023-05-22T08:38:24.774Z,4.47
2023-05-22T08:40:55.777Z,5.20
2023-05-22T08:43:24.444Z,4.95
2023-05-22T08:46:00.902Z,4.53
2023-05-22T08:48:31.959Z,4.97
2023-05-22T08:51:04.248Z,4.63
2023-05-22T08:53:35.480Z,4.80
2023-05-22T08:56:07.229Z,4.80
2023-05-22T08:58:38.964Z,4.57
2023-05-22T09:01:07.775Z,4.32
2023-05-22T09:03:37.825Z,4.20
2023-05-22T09:06:11.207Z,4.90
2023-05-22T09:08:39.788Z,4.93
2023-05-22T09:11:10.849Z,5.00
2023-05-22T09:13:41.504Z,4.88
2023-05-22T09:16:10.702Z,5.00
2023-05-22T09:18:38.793Z,4.88
2023-05-22T09:21:21.568Z,4.40
2023-05-22T09:24:00.291Z,4.90
2023-05-22T09:26:30.049Z,4.45
2023-05-22T09:29:00.880Z,4.72
2023-05-22T09:31:30.198Z,4.50
2023-05-22T09:33:58.506Z,4.97
2023-05-22T09:36:32.384Z,4.38
2023-05-22T09:39:01.721Z,4.57
2023-05-22T09:41:34.764Z,4.60
2023-05-22T09:44:02.995Z,4.30
2023-05-22T09:46:31.060Z,4.47
2023-05-22T09:48:59.207Z,4.50
2023-05-22T09:51:27.550Z,4.32
2023-05-22T09:54:03.379Z,4.50
2023-05-22T09:56:39.716Z,4.55
2023-05-22T09:59:10.871Z,5.03
2023-05-22T10:01:40.478Z,4.85
2023-05-22T10:04:13.718Z,4.70
2023-05-22T10:06:43.087Z,4.72
2023-05-22T10:09:19.234Z,4.82
2023-05-22T10:11:49.892Z,5.00
2023-05-22T10:14:18.449Z,4.47
2023-05-22T10:16:46.974Z,4.95
2023-05-22T10:19:15.413Z,4.90
2023-05-22T10:21:43.637Z,5.30
2023-05-22T10:24:13.629Z,4.75
2023-05-22T10:26:43.257Z,4.90
2023-05-22T10:29:17.951Z,4.90
2023-05-22T10:31:53.706Z,5.05
2023-05-22T10:34:31.375Z,4.97
2023-05-22T10:37:17.553Z,5.00
2023-05-22T10:39:58.810Z,4.88
2023-05-22T10:42:31.088Z,5.07
2023-05-22T10:45:01.746Z,5.10
2023-05-22T10:47:29.810Z,4.95
2023-05-22T10:50:06.241Z,5.57
2023-05-22T10:52:34.354Z,5.57
2023-05-22T10:55:02.640Z,5.55
2023-05-22T10:57:35.344Z,4.65
2023-05-22T11:00:13.172Z,5.40
2023-05-22T11:02:43.182Z,5.47
2023-05-22T11:05:36.759Z,5.55
2023-05-22T11:08:11.975Z,5.93
2023-05-22T11:10:56.497Z,5.40
2023-05-22T11:13:29.252Z,5.50
2023-05-22T11:15:59.067Z,5.07
2023-05-22T11:18:30.600Z,5.13
2023-05-22T11:21:00.533Z,5.53
2023-05-22T11:23:28.735Z,5.00
2023-05-22T11:25:56.897Z,5.50
2023-05-22T11:28:25.831Z,5.00
2023-05-22T11:30:55.006Z,5.70
2023-05-22T11:33:25.175Z,5.63
2023-05-22T11:35:55.148Z,5.53
2023-05-22T11:38:23.468Z,4.95
2023-05-22T11:40:53.210Z,5.50
2023-05-22T11:43:31.517Z,5.40
2023-05-22T11:46:02.613Z,5.63
2023-05-22T11:48:32.116Z,5.40
2023-05-22T11:51:00.593Z,5.53
2023-05-22T11:53:28.693Z,5.72
2023-05-22T11:55:56.693Z,5.70
2023-05-22T11:58:28.841Z,5.80
2023-05-22T12:01:00.214Z,5.47
2023-05-22T12:03:28.289Z,5.45
2023-05-22T12:05:58.075Z,6.28
2023-05-22T12:08:26.735Z,5.82
2023-05-22T12:10:55.551Z,5.40
2023-05-22T12:13:27.924Z,5.30
2023-05-22T12:16:00.276Z,5.28
2023-05-22T12:18:28.543Z,5.18
2023-05-22T12:20:58.038Z,5.55
2023-05-22T12:23:26.902Z,4.93
2023-05-22T12:25:59.176Z,5.20
2023-05-22T12:28:27.354Z,5.55
2023-05-22T12:30:56.350Z,5.20
2023-05-22T12:33:28.813Z,5.70
2023-05-22T12:35:59.396Z,5.90
2023-05-22T12:38:28.641Z,5.82
2023-05-22T12:40:57.510Z,5.35
2023-05-22T12:43:26.562Z,5.68
2023-05-22T12:45:54.852Z,5.32
2023-05-22T12:48:23.033Z,5.22
2023-05-22T12:50:51.118Z,5.50
2023-05-22T12:53:20.809Z,5.57
2023-05-22T12:55:48.851Z,5.38
2023-05-22T12:58:16.856Z,5.20
2023-05-22T13:00:44.864Z,5.40
2023-05-22T13:03:13.324Z,5.32
2023-05-22T13:05:42.078Z,5.28
2023-05-22T13:08:10.284Z,5.40
2023-05-22T13:10:39.651Z,5.00
2023-05-22T13:13:07.635Z,5.40
2023-05-22T13:15:36.280Z,5.28
2023-05-22T13:18:04.771Z,5.25
2023-05-22T13:20:32.943Z,5.30
2023-05-22T13:23:00.959Z,5.15
2023-05-22T13:25:28.957Z,5.15
2023-05-22T13:27:59.638Z,5.80
2023-05-22T13:30:28.444Z,5.18
2023-05-22T13:32:56.647Z,5.32
2023-05-22T13:35:24.753Z,5.82
2023-05-22T13:37:52.768Z,5.43
2023-05-22T13:40:21.189Z,5.28
2023-05-22T13:42:49.411Z,5.03
2023-05-22T13:45:18.881Z,5.72
2023-05-22T13:47:47.046Z,5.80
2023-05-22T13:50:15.115Z,5.60
2023-05-22T13:52:43.192Z,5.35
2023-05-22T13:55:11.661Z,5.53
2023-05-22T13:57:40.667Z,5.15
2023-05-22T14:00:10.135Z,5.78
2023-05-22T14:02:39.629Z,5.55
2023-05-22T14:05:08.405Z,5.43
2023-05-22T14:07:36.441Z,5.70
2023-05-22T14:10:04.918Z,5.70
2023-05-22T14:12:32.923Z,5.50
2023-05-22T14:15:01.025Z,5.63
2023-05-22T14:17:29.389Z,5.05
2023-05-22T14:19:59.848Z,5.45
2023-05-22T14:22:27.834Z,5.22
2023-05-22T14:24:55.855Z,5.65
2023-05-22T14:27:23.835Z,5.78
2023-05-22T14:29:51.791Z,5.57
2023-05-22T14:32:19.974Z,5.63
2023-05-22T14:34:47.966Z,5.70
2023-05-22T14:37:18.971Z,5.38
2023-05-22T14:39:46.969Z,5.50
2023-05-22T14:42:14.984Z,5.60
2023-05-22T14:44:42.997Z,5.40
2023-05-22T14:47:10.963Z,5.03
2023-05-22T14:49:38.951Z,5.65
2023-05-22T14:52:06.983Z,5.47
2023-05-22T14:54:36.334Z,5.18
2023-05-22T14:57:04.482Z,5.55
2023-05-22T14:59:33.891Z,5.63
2023-05-22T15:02:01.934Z,5.10
2023-05-22T15:04:31.275Z,5.18
2023-05-22T15:06:59.392Z,5.75
2023-05-22T15:09:27.456Z,5.30
2023-05-22T15:11:56.846Z,5.45
2023-05-22T15:14:24.902Z,5.30
2023-05-22T15:16:52.885Z,5.55
2023-05-22T15:19:20.908Z,5.63
2023-05-22T15:21:48.912Z,5.90
2023-05-22T15:24:17.153Z,5.22
2023-05-22T15:26:45.201Z,5.45
2023-05-22T15:29:14.653Z,5.55
2023-05-22T15:31:42.710Z,5.50
2023-05-22T15:34:10.998Z,5.80
2023-05-22T15:36:40.315Z,5.47
2023-05-22T15:39:08.354Z,5.60
2023-05-22T15:41:36.401Z,5.28
2023-05-22T15:44:04.390Z,5.32
2023-05-22T15:46:33.803Z,5.25
2023-05-22T15:49:01.907Z,5.32
2023-05-22T15:51:31.033Z,5.82
2023-05-22T15:53:59.463Z,5.45
2023-05-22T15:56:27.458Z,5.97
2023-05-22T15:58:55.661Z,5.80
2023-05-22T16:01:23.649Z,6.07
2023-05-22T16:03:53.174Z,5.70
2023-05-22T16:06:23.247Z,5.53
2023-05-22T16:08:51.297Z,5.40
2023-05-22T16:11:19.368Z,5.55
2023-05-22T16:13:47.558Z,5.70
2023-05-22T16:16:16.473Z,5.78
2023-05-22T16:18:44.627Z,5.38
2023-05-22T16:21:13.969Z,5.65
2023-05-22T16:23:42.075Z,5.57
2023-05-22T16:26:10.182Z,5.63
2023-05-22T16:28:38.196Z,5.57
2023-05-22T16:31:07.096Z,5.53
2023-05-22T16:33:37.455Z,5.38
2023-05-22T16:36:06.141Z,5.82
2023-05-22T16:38:35.500Z,5.60
2023-05-22T16:41:03.541Z,5.70
2023-05-22T16:43:31.554Z,5.97
2023-05-22T16:45:59.554Z,5.57
2023-05-22T16:48:27.621Z,6.03
2023-05-22T16:50:55.659Z,6.10
2023-05-22T16:53:23.637Z,5.65
2023-05-22T16:55:53.032Z,5.97
2023-05-22T16:58:21.872Z,5.68
2023-05-22T17:00:50.184Z,5.90
2023-05-22T17:03:18.410Z,6.05
2023-05-22T17:05:47.451Z,5.82
2023-05-22T17:08:15.669Z,5.65
2023-05-22T17:10:43.699Z,5.97
2023-05-22T17:13:20.711Z,5.80
2023-05-22T17:15:49.492Z,5.93
2023-05-22T17:18:19.682Z,5.80
2023-05-22T17:20:47.802Z,5.82
2023-05-22T17:23:15.998Z,6.40
2023-05-22T17:25:46.701Z,5.80
2023-05-22T17:28:16.682Z,6.10
2023-05-22T17:30:46.105Z,6.25
2023-05-22T17:33:14.313Z,5.78
2023-05-22T17:35:43.410Z,6.22
2023-05-22T17:38:11.395Z,5.97
2023-05-22T17:40:44.710Z,6.38
2023-05-22T17:43:14.633Z,6.30
2023-05-22T17:45:44.621Z,6.00
2023-05-22T17:48:14.600Z,6.07
2023-05-22T17:50:42.926Z,6.20
2023-05-22T17:53:10.985Z,5.82
2023-05-22T17:55:39.106Z,6.03
2023-05-22T17:58:07.397Z,6.10
2023-05-22T18:00:35.440Z,6.38
2023-05-22T18:03:04.970Z,6.85
2023-05-22T18:05:33.037Z,6.20
2023-05-22T18:08:01.337Z,6.30
2023-05-22T18:10:29.329Z,6.25
2023-05-22T18:12:57.521Z,6.75
2023-05-22T18:15:25.517Z,6.43
2023-05-22T18:17:53.552Z,6.40
2023-05-22T18:20:22.909Z,6.60
2023-05-22T18:22:50.898Z,6.20
2023-05-22T18:25:18.885Z,6.00
2023-05-22T18:27:46.985Z,6.70
2023-05-22T18:30:15.689Z,6.72
2023-05-22T18:32:43.711Z,6.80
2023-05-22T18:35:11.758Z,7.18
2023-05-22T18:37:41.470Z,7.07
2023-05-22T18:40:10.978Z,6.80
2023-05-22T18:42:39.090Z,6.75
2023-05-22T18:45:08.408Z,6.97
2023-05-22T18:47:36.441Z,6.03
2023-05-22T18:50:04.567Z,6.68
2023-05-22T18:52:32.642Z,6.75
2023-05-22T18:55:01.999Z,6.85
2023-05-22T18:57:30.020Z,7.25
2023-05-22T18:59:57.978Z,7.10
2023-05-22T19:02:26.161Z,6.45
2023-05-22T19:04:54.252Z,6.70
2023-05-22T19:07:22.289Z,6.45
2023-05-22T19:09:50.532Z,6.63
2023-05-22T19:12:19.948Z,6.80
2023-05-22T19:14:49.660Z,7.05
2023-05-22T19:17:17.669Z,7.28
2023-05-22T19:19:46.583Z,6.78
2023-05-22T19:22:17.228Z,7.00
2023-05-22T19:24:45.949Z,6.85
2023-05-22T19:27:14.037Z,7.45
2023-05-22T19:29:43.353Z,6.80
2023-05-22T19:32:11.356Z,7.00
2023-05-22T19:34:40.024Z,7.15
2023-05-22T19:37:09.369Z,7.75
2023-05-22T19:39:37.387Z,7.95
2023-05-22T19:42:08.141Z,7.90
2023-05-22T19:44:36.204Z,9.18
2023-05-22T19:47:05.865Z,9.82
2023-05-22T19:49:37.058Z,8.88
2023-05-22T19:52:05.796Z,8.98
2023-05-22T19:54:33.867Z,8.82
2023-05-22T19:57:01.889Z,9.38
2023-05-22T19:59:29.849Z,10.73
2023-05-22T20:01:57.827Z,9.82
2023-05-22T20:04:27.484Z,9.73
2023-05-22T20:06:58.607Z,9.57
2023-05-22T20:09:26.985Z,9.95
2023-05-22T20:11:55.106Z,9.60
2023-05-22T20:14:23.080Z,8.80
2023-05-22T20:16:51.163Z,9.63
2023-05-22T20:19:19.381Z,9.20
2023-05-22T20:21:49.990Z,9.27
2023-05-22T20:24:18.948Z,8.43
2023-05-22T20:26:47.290Z,9.15
2023-05-22T20:29:15.734Z,8.48
2023-05-22T20:31:43.797Z,8.30
2023-05-22T20:34:11.823Z,9.15
2023-05-22T20:36:40.878Z,9.65
2023-05-22T20:39:11.909Z,8.73
2023-05-22T20:41:39.980Z,8.55
2023-05-22T20:44:08.306Z,8.68
2023-05-22T20:46:36.447Z,9.45
2023-05-22T20:49:05.187Z,9.13
2023-05-22T20:51:33.618Z,8.98
2023-05-22T20:54:01.902Z,10.65
2023-05-22T20:56:31.332Z,9.85
2023-05-22T20:58:59.319Z,9.63
2023-05-22T21:01:27.327Z,9.65
2023-05-22T21:03:56.488Z,8.95
2023-05-22T21:06:24.916Z,9.05
2023-05-22T21:08:54.303Z,10.02
2023-05-22T21:11:22.397Z,9.07
2023-05-22T21:13:51.763Z,9.85
2023-05-22T21:16:19.791Z,9.48
2023-05-22T21:18:47.902Z,9.02
2023-05-22T21:21:16.381Z,9.73
2023-05-22T21:23:44.843Z,9.43
2023-05-22T21:26:12.821Z,8.80
2023-05-22T21:28:40.958Z,9.43
2023-05-22T21:31:10.455Z,9.32
2023-05-22T21:33:38.431Z,9.10
2023-05-22T21:36:06.764Z,9.38
2023-05-22T21:38:34.778Z,9.75
2023-05-22T21:41:02.735Z,9.63
2023-05-22T21:43:30.693Z,9.68
2023-05-22T21:45:58.696Z,9.68
2023-05-22T21:48:28.456Z,9.27
2023-05-22T21:50:56.468Z,9.63
2023-05-22T21:53:24.493Z,9.95
2023-05-22T21:55:52.744Z,9.35
2023-05-22T21:58:20.768Z,10.95
2023-05-22T22:00:48.858Z,10.02
2023-05-22T22:03:16.986Z,9.88
2023-05-22T22:05:46.385Z,10.27
2023-05-22T22:08:14.451Z,9.60
2023-05-22T22:10:42.592Z,9.32
2023-05-22T22:13:10.602Z,10.20
2023-05-22T22:15:39.157Z,10.48
2023-05-22T22:18:07.350Z,12.25
2023-05-22T22:20:44.438Z,10.77
2023-05-22T22:23:15.214Z,12.00
2023-05-22T22:25:43.206Z,11.30
2023-05-22T22:28:11.412Z,10.93
2023-05-22T22:30:39.799Z,9.48
2023-05-22T22:33:08.127Z,9.77
2023-05-22T22:35:36.171Z,9.70
2023-05-22T22:38:04.258Z,9.35
2023-05-22T22:40:33.627Z,9.38
2023-05-22T22:43:01.620Z,9.93
2023-05-22T22:45:29.700Z,9.50
2023-05-22T22:47:57.806Z,9.70
2023-05-22T22:50:25.831Z,9.35
2023-05-22T22:52:53.917Z,9.70
2023-05-22T22:55:22.191Z,9.90
2023-05-22T22:57:51.965Z,9.52
2023-05-22T23:00:20.622Z,9.82
2023-05-22T23:02:48.672Z,9.55
2023-05-22T23:05:20.209Z,10.00
2023-05-22T23:07:49.140Z,10.55
2023-05-22T23:10:17.153Z,9.60
2023-05-22T23:12:45.268Z,9.85
2023-05-22T23:15:16.243Z,10.10
2023-05-22T23:17:44.427Z,9.82
2023-05-22T23:20:12.773Z,10.15
2023-05-22T23:22:40.833Z,10.02
2023-05-22T23:25:09.410Z,9.88
2023-05-22T23:27:37.547Z,10.38
2023-05-22T23:30:06.822Z,10.60
2023-05-22T23:32:36.326Z,10.40
2023-05-22T23:35:05.856Z,10.55
2023-05-22T23:37:33.853Z,9.88
2023-05-22T23:40:01.954Z,10.00
2023-05-22T23:42:29.931Z,9.57
2023-05-22T23:44:57.946Z,9.82
2023-05-22T23:47:25.918Z,9.13
2023-05-22T23:49:56.648Z,9.65
2023-05-22T23:52:24.792Z,9.15
2023-05-22T23:54:52.788Z,9.75
2023-05-22T23:57:20.842Z,9.65
2023-05-22T23:59:48.980Z,10.13
